Steelmantown, New Jersey
Current Conditions -  °F | °C
As of 11:54 PM on Friday 28 Nov 2014 (Local Time) from KMIV Reporting Station
Clear Clear  
Wind Chill: 22°   Ceiling: Unl
Heat Index: 22°   Visibility: 10mi
Dew Point: 18°   Wind: 3mph
Humidity: 85%   Direction: 290°WNW
Pressure: 30.29"   Gusts: NA
Location:  39.2589°N, 74.8124°W
Report Text: KMIV 290454Z AUTO 29003KT 10SM CLR M06/M08 A3029 RMK AO2 SLP257 T10561078 400501061
Loading
Personal Weather Stations






























Interactive Weather Map New forecast layout! Learn more

10-Day Weather Forecast

Advertisements
Track Severe Weather on mobile